createdAt,value
2019-02-10T00:01:46.954Z,62.50
2019-02-10T00:04:16.607Z,62.43
2019-02-10T00:06:46.300Z,62.54
2019-02-10T00:09:15.914Z,62.63
2019-02-10T00:11:45.537Z,62.67
2019-02-10T00:14:15.126Z,62.61
2019-02-10T00:16:44.555Z,62.59
2019-02-10T00:19:13.849Z,62.72
2019-02-10T00:21:43.566Z,62.74
2019-02-10T00:24:13.250Z,62.89
2019-02-10T00:26:42.616Z,62.87
2019-02-10T00:29:12.360Z,63.23
2019-02-10T00:31:41.970Z,63.05
2019-02-10T00:34:11.671Z,63.21
2019-02-10T00:36:41.277Z,63.25
2019-02-10T00:39:10.628Z,63.45
2019-02-10T00:41:40.289Z,63.31
2019-02-10T00:44:09.608Z,63.18
2019-02-10T00:46:38.946Z,63.18
2019-02-10T00:49:08.264Z,63.35
2019-02-10T00:51:37.586Z,63.56
2019-02-10T00:54:06.888Z,63.15
2019-02-10T00:56:36.488Z,63.40
2019-02-10T00:59:05.830Z,63.44
2019-02-10T01:01:35.126Z,63.42
2019-02-10T01:04:04.752Z,63.11
2019-02-10T01:06:41.206Z,63.01
2019-02-10T01:09:06.051Z,62.89
2019-02-10T01:11:35.666Z,62.73
2019-02-10T01:14:04.974Z,62.55
2019-02-10T01:16:34.360Z,62.71
2019-02-10T01:19:07.760Z,62.21
2019-02-10T01:21:37.084Z,62.13
2019-02-10T01:24:06.387Z,61.98
2019-02-10T01:26:36.113Z,61.67
2019-02-10T01:29:05.448Z,61.68
2019-02-10T01:31:34.730Z,61.87
2019-02-10T01:34:04.071Z,61.71
2019-02-10T01:36:33.391Z,61.57
2019-02-10T01:39:02.706Z,61.72
2019-02-10T01:41:32.389Z,61.92
2019-02-10T01:44:01.984Z,61.70
2019-02-10T01:46:31.598Z,61.93
2019-02-10T01:49:00.934Z,61.89
2019-02-10T01:51:30.244Z,61.93
2019-02-10T01:54:00.023Z,62.09
2019-02-10T01:56:29.332Z,62.25
2019-02-10T01:58:58.656Z,62.39
2019-02-10T02:01:27.972Z,62.44
2019-02-10T02:03:57.308Z,62.58
2019-02-10T02:06:26.625Z,62.52
2019-02-10T02:08:56.316Z,62.68
2019-02-10T02:11:25.947Z,62.57
2019-02-10T02:13:55.245Z,62.42
2019-02-10T02:16:24.615Z,62.53
2019-02-10T02:18:53.930Z,62.33
2019-02-10T02:21:25.959Z,62.43
2019-02-10T02:23:55.277Z,62.50
2019-02-10T02:26:24.883Z,62.33
2019-02-10T02:28:54.241Z,62.42
2019-02-10T02:31:23.552Z,62.48
2019-02-10T02:33:52.895Z,62.63
2019-02-10T02:36:22.220Z,62.56
2019-02-10T02:38:51.529Z,62.79
2019-02-10T02:41:20.898Z,62.40
2019-02-10T02:43:50.194Z,62.72
2019-02-10T02:46:19.486Z,62.82
2019-02-10T02:48:49.199Z,63.50
2019-02-10T02:51:18.797Z,63.74
2019-02-10T02:53:48.393Z,63.90
2019-02-10T02:56:18.973Z,64.10
2019-02-10T02:58:48.312Z,64.73
2019-02-10T03:01:37.407Z,64.46
2019-02-10T03:04:07.050Z,64.36
2019-02-10T03:06:45.651Z,64.69
2019-02-10T03:09:15.200Z,65.19
2019-02-10T03:11:44.833Z,65.07
2019-02-10T03:14:14.155Z,65.16
2019-02-10T03:16:43.462Z,65.53
2019-02-10T03:19:12.769Z,65.48
2019-02-10T03:21:42.100Z,65.47
2019-02-10T03:24:11.740Z,65.68
2019-02-10T03:26:41.074Z,65.75
2019-02-10T03:29:10.655Z,65.49
2019-02-10T03:31:40.260Z,65.76
2019-02-10T03:34:09.572Z,66.01
2019-02-10T03:36:38.887Z,65.78
2019-02-10T03:39:08.214Z,65.58
2019-02-10T03:41:37.871Z,65.31
2019-02-10T03:44:07.592Z,64.91
2019-02-10T03:46:37.213Z,64.54
2019-02-10T03:49:06.545Z,64.34
2019-02-10T03:51:35.862Z,64.66
2019-02-10T03:54:05.491Z,64.50
2019-02-10T03:56:35.096Z,64.36
2019-02-10T03:59:04.423Z,64.08
2019-02-10T04:01:34.115Z,64.33
2019-02-10T04:04:03.813Z,64.75
2019-02-10T04:06:33.407Z,65.31
2019-02-10T04:09:02.723Z,65.47
2019-02-10T04:11:32.148Z,65.22
2019-02-10T04:14:01.449Z,65.83
2019-02-10T04:16:31.326Z,66.16
2019-02-10T04:19:00.943Z,66.29
2019-02-10T04:21:30.241Z,66.24
2019-02-10T04:23:59.836Z,66.30
2019-02-10T04:26:29.139Z,66.59
2019-02-10T04:28:58.746Z,65.94
2019-02-10T04:31:28.369Z,66.39
2019-02-10T04:33:57.968Z,66.60
2019-02-10T04:36:27.289Z,66.59
2019-02-10T04:38:56.977Z,66.91
2019-02-10T04:41:26.291Z,66.83
2019-02-10T04:43:55.614Z,66.83
2019-02-10T04:46:24.924Z,66.86
2019-02-10T04:48:54.603Z,66.21
2019-02-10T04:51:23.966Z,66.20
2019-02-10T04:53:53.580Z,65.89
2019-02-10T04:56:23.190Z,65.92
2019-02-10T04:58:52.805Z,66.28
2019-02-10T05:01:22.394Z,66.37
2019-02-10T05:03:52.001Z,66.57
2019-02-10T05:06:21.603Z,66.16
2019-02-10T05:08:50.928Z,65.98
2019-02-10T05:11:20.242Z,65.81
2019-02-10T05:13:49.708Z,65.63
2019-02-10T05:16:19.313Z,65.86
2019-02-10T05:18:48.931Z,65.48
2019-02-10T05:21:18.315Z,65.29
2019-02-10T05:23:47.644Z,65.32
2019-02-10T05:26:16.969Z,65.59
2019-02-10T05:28:46.741Z,65.89
2019-02-10T05:31:16.361Z,66.28
2019-02-10T05:33:45.696Z,66.25
2019-02-10T05:36:15.424Z,66.09
2019-02-10T05:38:45.177Z,66.08
2019-02-10T05:41:14.893Z,66.07
2019-02-10T05:43:44.210Z,66.13
2019-02-10T05:46:13.549Z,66.07
2019-02-10T05:48:42.884Z,66.11
2019-02-10T05:51:12.208Z,66.06
2019-02-10T05:53:41.559Z,66.19
2019-02-10T05:56:10.889Z,65.70
2019-02-10T05:58:40.208Z,65.90
2019-02-10T06:01:57.514Z,66.13
2019-02-10T06:04:27.002Z,65.80
2019-02-10T06:07:01.184Z,66.25
2019-02-10T06:09:30.854Z,66.47
2019-02-10T06:12:00.165Z,67.12
2019-02-10T06:14:29.829Z,66.97
2019-02-10T06:16:59.148Z,66.86
2019-02-10T06:19:28.520Z,67.06
2019-02-10T06:21:58.132Z,66.99
2019-02-10T06:24:27.740Z,67.08
2019-02-10T06:26:57.356Z,67.11
2019-02-10T06:29:26.667Z,66.80
2019-02-10T06:31:55.984Z,66.80
2019-02-10T06:34:25.311Z,66.86
2019-02-10T06:36:54.958Z,66.68
2019-02-10T06:39:24.565Z,66.64
2019-02-10T06:41:54.184Z,66.58
2019-02-10T06:44:23.525Z,66.62
2019-02-10T06:46:52.833Z,66.88
2019-02-10T06:49:22.486Z,66.48
2019-02-10T06:51:52.097Z,66.50
2019-02-10T06:54:21.404Z,66.28
2019-02-10T06:56:50.730Z,66.34
2019-02-10T06:59:21.709Z,66.32
2019-02-10T07:01:53.171Z,66.62
2019-02-10T07:04:22.979Z,66.07
2019-02-10T07:06:52.903Z,66.17
2019-02-10T07:09:24.148Z,65.67
2019-02-10T07:11:53.466Z,66.07
2019-02-10T07:14:27.484Z,65.74
2019-02-10T07:17:13.788Z,65.42
2019-02-10T07:20:33.948Z,65.49
2019-02-10T07:23:44.708Z,65.23
2019-02-10T07:26:15.312Z,65.05
2019-02-10T07:28:44.622Z,64.38
2019-02-10T07:31:13.994Z,64.35
2019-02-10T07:33:51.239Z,64.36
2019-02-10T07:36:59.859Z,64.15
2019-02-10T07:39:48.613Z,63.83
2019-02-10T07:42:34.903Z,64.06
2019-02-10T07:45:17.815Z,64.00
2019-02-10T07:48:10.616Z,63.23
2019-02-10T07:50:48.148Z,63.09
2019-02-10T07:53:40.225Z,63.04
2019-02-10T07:56:32.944Z,63.07
2019-02-10T07:59:35.665Z,63.33
2019-02-10T08:02:32.459Z,62.79
2019-02-10T08:05:36.827Z,62.53
2019-02-10T08:08:22.609Z,62.32
2019-02-10T08:11:31.938Z,61.83
2019-02-10T08:14:26.930Z,61.97
2019-02-10T08:17:25.715Z,61.36
2019-02-10T08:20:21.019Z,61.13
2019-02-10T08:22:57.995Z,60.83
2019-02-10T08:25:53.546Z,60.75
2019-02-10T08:28:59.436Z,60.76
2019-02-10T08:31:50.198Z,60.81
2019-02-10T08:34:49.209Z,60.63
2019-02-10T08:37:45.732Z,60.30
2019-02-10T08:40:58.206Z,60.29
2019-02-10T08:43:50.292Z,60.41
2019-02-10T08:46:24.512Z,60.13
2019-02-10T08:49:16.519Z,60.35
2019-02-10T08:52:17.412Z,59.73
2019-02-10T08:54:46.741Z,59.97
2019-02-10T08:57:16.345Z,59.42
2019-02-10T08:59:45.739Z,59.21
2019-02-10T09:02:15.493Z,59.17
2019-02-10T09:04:44.858Z,58.94
2019-02-10T09:07:15.457Z,59.07
2019-02-10T09:09:44.845Z,59.08
2019-02-10T09:12:14.186Z,59.02
2019-02-10T09:14:43.918Z,59.09
2019-02-10T09:17:13.605Z,58.73
2019-02-10T09:19:43.200Z,58.78
2019-02-10T09:22:12.937Z,58.85
2019-02-10T09:24:42.373Z,58.93
2019-02-10T09:27:13.183Z,58.79
2019-02-10T09:29:42.868Z,58.67
2019-02-10T09:32:12.234Z,58.22
2019-02-10T09:34:41.882Z,58.12
2019-02-10T09:37:11.297Z,58.05
2019-02-10T09:39:40.690Z,57.71
2019-02-10T09:42:10.016Z,57.52
2019-02-10T09:44:39.316Z,57.45
2019-02-10T09:47:08.638Z,57.48
2019-02-10T09:49:37.974Z,57.48
2019-02-10T09:52:07.570Z,57.59
2019-02-10T09:54:36.908Z,57.23
2019-02-10T09:57:06.583Z,57.71
2019-02-10T09:59:35.930Z,57.64
2019-02-10T10:02:05.266Z,57.30
2019-02-10T10:04:34.581Z,57.13
2019-02-10T10:07:04.303Z,57.01
2019-02-10T10:09:33.917Z,56.99
2019-02-10T10:12:03.610Z,56.80
2019-02-10T10:14:33.352Z,56.71
2019-02-10T10:17:03.082Z,56.72
2019-02-10T10:19:34.714Z,56.51
2019-02-10T10:22:04.297Z,56.64
2019-02-10T10:24:33.903Z,56.48
2019-02-10T10:27:03.512Z,56.59
2019-02-10T10:29:32.899Z,56.31
2019-02-10T10:32:02.231Z,56.18
2019-02-10T10:34:31.547Z,56.53
2019-02-10T10:37:01.200Z,55.73
2019-02-10T10:39:30.526Z,55.38
2019-02-10T10:42:00.116Z,55.07
2019-02-10T10:44:29.730Z,54.66
2019-02-10T10:46:59.322Z,54.37
2019-02-10T10:49:28.932Z,54.34
2019-02-10T10:51:58.538Z,54.17
2019-02-10T10:54:28.159Z,54.26
2019-02-10T10:56:57.754Z,54.71
2019-02-10T10:59:27.471Z,54.72
2019-02-10T11:01:57.086Z,54.65
2019-02-10T11:04:26.771Z,54.44
2019-02-10T11:06:56.116Z,54.55
2019-02-10T11:09:25.828Z,55.13
2019-02-10T11:11:55.501Z,55.26
2019-02-10T11:14:24.811Z,54.98
2019-02-10T11:16:54.134Z,55.18
2019-02-10T11:19:23.815Z,55.07
2019-02-10T11:21:54.005Z,55.53
2019-02-10T11:24:28.559Z,55.45
2019-02-10T11:26:54.785Z,55.41
2019-02-10T11:29:24.589Z,55.53
2019-02-10T11:31:54.209Z,55.59
2019-02-10T11:34:24.019Z,55.57
2019-02-10T11:36:53.323Z,55.76
2019-02-10T11:39:22.906Z,55.75
2019-02-10T11:41:52.520Z,55.60
2019-02-10T11:44:22.129Z,55.67
2019-02-10T11:46:51.723Z,55.58
2019-02-10T11:49:21.412Z,56.06
2019-02-10T11:51:50.821Z,56.28
2019-02-10T11:54:20.444Z,56.57
2019-02-10T11:56:50.167Z,56.81
2019-02-10T11:59:19.760Z,57.25
2019-02-10T12:01:49.076Z,57.61
2019-02-10T12:04:18.386Z,57.68
2019-02-10T12:06:48.070Z,57.21
2019-02-10T12:09:17.398Z,57.07
2019-02-10T12:11:47.068Z,56.84
2019-02-10T12:14:16.679Z,57.08
2019-02-10T12:16:46.288Z,57.46
2019-02-10T12:19:15.637Z,56.74
2019-02-10T12:21:45.310Z,56.57
2019-02-10T12:24:14.592Z,56.77
2019-02-10T12:26:44.310Z,56.77
2019-02-10T12:29:13.937Z,56.96
2019-02-10T12:31:43.631Z,56.78
2019-02-10T12:34:13.242Z,56.81
2019-02-10T12:36:42.582Z,56.60
2019-02-10T12:39:11.924Z,56.58
2019-02-10T12:41:41.242Z,56.78
2019-02-10T12:44:10.856Z,56.46
2019-02-10T12:46:40.553Z,56.21
2019-02-10T12:49:10.179Z,55.97
2019-02-10T12:51:39.581Z,55.84
2019-02-10T12:54:09.271Z,55.82
2019-02-10T12:56:38.977Z,55.59
2019-02-10T12:59:08.565Z,55.58
2019-02-10T13:01:38.321Z,55.33
2019-02-10T13:04:08.032Z,55.39
2019-02-10T13:06:37.318Z,54.92
2019-02-10T13:09:08.602Z,54.93
2019-02-10T13:11:38.248Z,55.05
2019-02-10T13:14:07.954Z,54.86
2019-02-10T13:16:37.750Z,54.74
2019-02-10T13:19:07.376Z,54.34
2019-02-10T13:21:37.002Z,54.20
2019-02-10T13:24:06.318Z,54.06
2019-02-10T13:26:35.988Z,54.00
2019-02-10T13:29:05.600Z,53.87
2019-02-10T13:31:35.302Z,54.04
2019-02-10T13:34:05.119Z,53.76
2019-02-10T13:36:34.452Z,54.32
2019-02-10T13:39:05.152Z,54.23
2019-02-10T13:41:36.504Z,54.66
2019-02-10T13:44:06.418Z,54.72
2019-02-10T13:46:35.753Z,54.58
2019-02-10T13:49:05.092Z,54.75
2019-02-10T13:51:34.727Z,55.17
2019-02-10T13:54:04.351Z,54.99
2019-02-10T13:56:33.657Z,54.83
2019-02-10T13:59:02.961Z,55.19
2019-02-10T14:01:32.644Z,54.70
2019-02-10T14:04:02.331Z,54.65
2019-02-10T14:06:31.647Z,54.33
2019-02-10T14:09:01.035Z,54.64
2019-02-10T14:11:30.616Z,54.96
2019-02-10T14:14:00.349Z,54.58
2019-02-10T14:16:29.936Z,54.52
2019-02-10T14:18:59.785Z,54.07
2019-02-10T14:21:29.084Z,53.78
2019-02-10T14:23:58.691Z,53.83
2019-02-10T14:26:28.326Z,53.85
2019-02-10T14:28:57.688Z,53.59
2019-02-10T14:31:27.283Z,53.44
2019-02-10T14:33:56.609Z,53.34
2019-02-10T14:36:26.202Z,53.21
2019-02-10T14:38:55.790Z,53.03
2019-02-10T14:41:25.413Z,52.83
2019-02-10T14:43:54.733Z,52.99
2019-02-10T14:46:24.043Z,53.02
2019-02-10T14:48:53.467Z,53.00
2019-02-10T14:51:22.782Z,53.43
2019-02-10T14:53:52.129Z,53.71
2019-02-10T14:56:21.715Z,53.68
2019-02-10T14:58:51.059Z,53.71
2019-02-10T15:01:20.423Z,54.16
2019-02-10T15:03:50.312Z,53.66
2019-02-10T15:06:19.628Z,53.54
2019-02-10T15:08:48.952Z,52.97
2019-02-10T15:11:18.395Z,53.46
2019-02-10T15:13:47.692Z,53.09
2019-02-10T15:16:17.041Z,53.28
2019-02-10T15:18:46.664Z,52.62
2019-02-10T15:21:16.004Z,52.28
2019-02-10T15:23:45.731Z,52.29
2019-02-10T15:26:15.479Z,52.20
2019-02-10T15:28:45.203Z,51.63
2019-02-10T15:31:14.726Z,50.53
2019-02-10T15:33:44.450Z,49.24
2019-02-10T15:36:13.844Z,49.02
2019-02-10T15:38:47.639Z,48.97
2019-02-10T15:41:17.375Z,48.64
2019-02-10T15:43:47.192Z,48.28
2019-02-10T15:46:16.768Z,48.31
2019-02-10T15:48:46.483Z,48.62
2019-02-10T15:51:16.195Z,48.98
2019-02-10T15:53:45.530Z,49.34
2019-02-10T15:56:14.835Z,49.93
2019-02-10T15:58:44.426Z,50.48
2019-02-10T16:01:13.864Z,50.62
2019-02-10T16:03:43.472Z,50.47
2019-02-10T16:06:12.828Z,50.46
2019-02-10T16:08:42.407Z,50.67
2019-02-10T16:11:12.039Z,50.84
2019-02-10T16:13:41.332Z,50.20
2019-02-10T16:16:10.657Z,50.22
2019-02-10T16:18:41.378Z,50.10
2019-02-10T16:21:10.970Z,50.01
2019-02-10T16:23:40.325Z,50.07
2019-02-10T16:26:09.825Z,50.04
2019-02-10T16:28:39.362Z,49.91
2019-02-10T16:31:08.844Z,49.83
2019-02-10T16:33:38.483Z,49.64
2019-02-10T16:36:07.819Z,49.80
2019-02-10T16:38:37.207Z,49.41
2019-02-10T16:41:06.861Z,49.56
2019-02-10T16:43:36.610Z,49.54
2019-02-10T16:46:06.004Z,49.66
2019-02-10T16:48:35.619Z,49.66
2019-02-10T16:51:04.944Z,49.93
2019-02-10T16:53:34.292Z,49.92
2019-02-10T16:56:03.952Z,50.01
2019-02-10T16:58:33.288Z,49.90
2019-02-10T17:01:02.631Z,49.99
2019-02-10T17:03:32.239Z,50.05
2019-02-10T17:06:01.561Z,49.84
2019-02-10T17:08:31.169Z,49.95
2019-02-10T17:11:00.552Z,49.82
2019-02-10T17:13:29.881Z,49.82
2019-02-10T17:16:04.917Z,49.67
2019-02-10T17:18:30.560Z,50.04
2019-02-10T17:21:00.140Z,49.82
2019-02-10T17:23:30.367Z,49.21
2019-02-10T17:26:00.003Z,49.24
2019-02-10T17:28:29.329Z,48.87
2019-02-10T17:30:58.616Z,49.14
2019-02-10T17:33:27.941Z,49.20
2019-02-10T17:35:57.569Z,49.21
2019-02-10T17:38:26.922Z,49.25
2019-02-10T17:41:22.893Z,48.95
2019-02-10T17:43:50.381Z,48.86
2019-02-10T17:46:20.708Z,49.06
2019-02-10T17:48:50.108Z,49.30
2019-02-10T17:51:19.719Z,49.23
2019-02-10T17:53:49.320Z,49.30
2019-02-10T17:56:19.209Z,49.35
2019-02-10T17:58:48.864Z,49.53
2019-02-10T18:01:18.530Z,49.71
2019-02-10T18:03:48.245Z,49.63
2019-02-10T18:06:18.092Z,49.85
2019-02-10T18:08:47.617Z,49.84
2019-02-10T18:11:17.207Z,50.24
2019-02-10T18:13:46.702Z,50.57
2019-02-10T18:16:18.798Z,50.79
2019-02-10T18:18:52.554Z,51.30
2019-02-10T18:21:23.567Z,51.81
2019-02-10T18:24:13.012Z,51.91
2019-02-10T18:26:46.986Z,52.42
2019-02-10T18:29:18.763Z,53.19
2019-02-10T18:31:47.999Z,53.62
2019-02-10T18:34:19.505Z,53.95
2019-02-10T18:36:53.437Z,54.37
2019-02-10T18:39:27.877Z,54.52
2019-02-10T18:42:11.075Z,54.66
2019-02-10T18:44:45.357Z,55.64
2019-02-10T18:47:19.104Z,56.14
2019-02-10T18:49:50.095Z,56.43
2019-02-10T18:52:21.917Z,56.47
2019-02-10T18:54:58.670Z,56.56
2019-02-10T18:57:28.046Z,56.36
2019-02-10T19:00:01.954Z,56.54
2019-02-10T19:02:33.276Z,56.65
2019-02-10T19:05:10.224Z,56.57
2019-02-10T19:07:41.473Z,56.79
2019-02-10T19:10:15.166Z,56.60
2019-02-10T19:12:46.440Z,56.73
2019-02-10T19:15:19.876Z,56.62
2019-02-10T19:17:51.106Z,56.65
2019-02-10T19:20:27.783Z,56.85
2019-02-10T19:22:59.130Z,56.82
2019-02-10T19:25:48.282Z,56.65
2019-02-10T19:28:35.701Z,56.70
2019-02-10T19:31:23.098Z,56.65
2019-02-10T19:34:10.172Z,56.75
2019-02-10T19:36:46.946Z,56.63
2019-02-10T19:39:18.045Z,57.09
2019-02-10T19:41:55.711Z,57.37
2019-02-10T19:44:30.162Z,57.43
2019-02-10T19:47:01.525Z,57.41
2019-02-10T19:49:32.789Z,57.65
2019-02-10T19:52:19.692Z,57.85
2019-02-10T19:55:01.242Z,57.95
2019-02-10T19:57:34.954Z,57.78
2019-02-10T20:00:10.559Z,57.93
2019-02-10T20:02:44.273Z,58.42
2019-02-10T20:05:31.660Z,58.26
2019-02-10T20:08:05.356Z,58.54
2019-02-10T20:10:45.048Z,58.62
2019-02-10T20:13:28.094Z,58.69
2019-02-10T20:16:02.395Z,58.79
2019-02-10T20:18:39.482Z,58.89
2019-02-10T20:21:23.173Z,58.98
2019-02-10T20:23:54.605Z,58.87
2019-02-10T20:26:28.484Z,58.73
2019-02-10T20:28:59.783Z,58.63
2019-02-10T20:31:46.728Z,58.62
2019-02-10T20:34:26.284Z,58.88
2019-02-10T20:37:13.316Z,58.59
2019-02-10T20:39:46.980Z,58.66
2019-02-10T20:42:20.946Z,59.18
2019-02-10T20:44:57.939Z,58.67
2019-02-10T20:47:32.062Z,58.70
2019-02-10T20:50:12.046Z,58.92
2019-02-10T20:52:46.421Z,59.13
2019-02-10T20:55:15.872Z,59.37
2019-02-10T20:57:52.519Z,59.49
2019-02-10T21:00:32.384Z,59.31
2019-02-10T21:03:12.219Z,58.98
2019-02-10T21:05:48.950Z,59.04
2019-02-10T21:08:32.053Z,59.02
2019-02-10T21:11:15.970Z,58.93
2019-02-10T21:13:55.761Z,58.43
2019-02-10T21:16:26.703Z,58.13
2019-02-10T21:19:00.723Z,58.35
2019-02-10T21:21:32.142Z,58.34
2019-02-10T21:24:19.425Z,58.39
2019-02-10T21:26:50.374Z,58.42
2019-02-10T21:29:23.795Z,58.57
2019-02-10T21:31:55.032Z,58.35
2019-02-10T21:34:37.437Z,58.14
2019-02-10T21:37:08.666Z,58.16
2019-02-10T21:39:39.970Z,57.87
2019-02-10T21:42:10.984Z,58.01
2019-02-10T21:44:56.731Z,58.06
2019-02-10T21:47:33.172Z,58.06
2019-02-10T21:50:04.412Z,57.96
2019-02-10T21:52:33.903Z,58.30
2019-02-10T21:55:03.231Z,58.32
2019-02-10T21:57:32.810Z,57.99
2019-02-10T22:00:02.141Z,58.28
2019-02-10T22:02:31.459Z,58.53
2019-02-10T22:05:01.075Z,58.50
2019-02-10T22:07:30.627Z,58.77
2019-02-10T22:10:00.254Z,58.37
2019-02-10T22:12:36.933Z,58.98
2019-02-10T22:15:00.971Z,58.94
2019-02-10T22:17:30.662Z,59.12
2019-02-10T22:19:59.957Z,59.34
2019-02-10T22:22:29.305Z,59.31
2019-02-10T22:24:58.665Z,59.65
2019-02-10T22:27:28.867Z,59.78
2019-02-10T22:29:58.526Z,59.94
2019-02-10T22:32:28.114Z,60.05
2019-02-10T22:34:57.720Z,60.02
2019-02-10T22:37:27.311Z,59.63
2019-02-10T22:39:56.925Z,59.66
2019-02-10T22:42:26.252Z,59.83
2019-02-10T22:44:55.855Z,60.09
2019-02-10T22:47:25.192Z,59.88
2019-02-10T22:49:54.522Z,59.84
2019-02-10T22:52:24.063Z,60.13
2019-02-10T22:54:53.607Z,60.15
2019-02-10T22:57:23.183Z,60.32
2019-02-10T22:59:52.613Z,60.02
2019-02-10T23:02:22.144Z,60.19
2019-02-10T23:04:51.700Z,60.34
2019-02-10T23:07:21.300Z,60.32
2019-02-10T23:09:50.625Z,60.50
2019-02-10T23:12:20.202Z,60.19
2019-02-10T23:14:49.528Z,60.63
2019-02-10T23:17:18.980Z,60.71
2019-02-10T23:19:48.342Z,61.75
2019-02-10T23:22:17.923Z,60.39
2019-02-10T23:24:47.528Z,60.29
2019-02-10T23:27:17.104Z,60.48
2019-02-10T23:29:46.739Z,60.87
2019-02-10T23:32:16.073Z,60.60
2019-02-10T23:34:45.409Z,60.60
2019-02-10T23:37:14.780Z,60.63
2019-02-10T23:39:44.351Z,60.26
2019-02-10T23:42:13.691Z,60.51
2019-02-10T23:44:43.017Z,60.15
2019-02-10T23:47:12.658Z,60.12
2019-02-10T23:49:42.273Z,59.78
2019-02-10T23:52:11.847Z,60.13
2019-02-10T23:54:42.015Z,59.87
2019-02-10T23:57:11.597Z,59.92
2019-02-10T23:59:41.176Z,59.63
